createdAt,value
2023-04-17T00:02:01.536Z,8.29
2023-04-17T00:04:48.401Z,8.29
2023-04-17T00:07:35.007Z,8.25
2023-04-17T00:10:22.480Z,8.24
2023-04-17T00:13:08.434Z,8.26
2023-04-17T00:15:54.790Z,8.28
2023-04-17T00:18:40.650Z,8.30
2023-04-17T00:21:29.657Z,8.29
2023-04-17T00:24:15.332Z,8.28
2023-04-17T00:27:03.143Z,8.23
2023-04-17T00:29:49.312Z,8.18
2023-04-17T00:32:35.624Z,8.15
2023-04-17T00:35:21.361Z,8.16
2023-04-17T00:38:08.518Z,8.14
2023-04-17T00:40:54.241Z,8.14
2023-04-17T00:43:41.433Z,8.13
2023-04-17T00:46:27.784Z,8.11
2023-04-17T00:49:14.206Z,8.10
2023-04-17T00:52:00.058Z,8.03
2023-04-17T00:54:45.897Z,8.05
2023-04-17T00:57:31.613Z,8.03
2023-04-17T01:00:18.928Z,7.93
2023-04-17T01:03:05.236Z,7.83
2023-04-17T01:05:52.057Z,7.78
2023-04-17T01:08:40.361Z,7.84
2023-04-17T01:11:26.764Z,7.81
2023-04-17T01:14:12.417Z,7.80
2023-04-17T01:16:59.712Z,7.77
2023-04-17T01:19:46.218Z,7.74
2023-04-17T01:22:32.328Z,7.72
2023-04-17T01:25:19.986Z,7.69
2023-04-17T01:28:06.529Z,7.64
2023-04-17T01:30:52.295Z,7.60
2023-04-17T01:33:38.654Z,7.49
2023-04-17T01:36:24.331Z,7.48
2023-04-17T01:39:10.390Z,7.48
2023-04-17T01:41:58.860Z,7.41
2023-04-17T01:44:44.711Z,7.42
2023-04-17T01:47:30.512Z,7.35
2023-04-17T01:50:16.441Z,7.36
2023-04-17T01:53:02.253Z,7.28
2023-04-17T01:55:48.034Z,7.23
2023-04-17T01:58:35.125Z,7.20
2023-04-17T02:01:20.971Z,7.17
2023-04-17T02:04:06.881Z,7.21
2023-04-17T02:06:52.902Z,7.13
2023-04-17T02:09:38.627Z,7.15
2023-04-17T02:12:26.942Z,7.15
2023-04-17T02:15:14.263Z,7.15
2023-04-17T02:18:00.393Z,7.10
2023-04-17T02:20:46.067Z,7.10
2023-04-17T02:23:31.772Z,7.08
2023-04-17T02:26:17.672Z,7.05
2023-04-17T02:29:03.669Z,7.03
2023-04-17T02:31:51.218Z,7.01
2023-04-17T02:34:37.382Z,7.00
2023-04-17T02:37:23.821Z,6.96
2023-04-17T02:40:12.250Z,6.92
2023-04-17T02:42:58.341Z,6.90
2023-04-17T02:45:44.620Z,6.87
2023-04-17T02:48:33.596Z,6.85
2023-04-17T02:51:19.379Z,6.82
2023-04-17T02:54:05.442Z,6.81
2023-04-17T02:56:51.449Z,6.80
2023-04-17T02:59:37.158Z,6.77
2023-04-17T03:02:23.269Z,6.76
2023-04-17T03:05:11.414Z,6.75
2023-04-17T03:07:57.278Z,6.70
2023-04-17T03:10:43.641Z,6.67
2023-04-17T03:13:29.305Z,6.68
2023-04-17T03:16:15.417Z,6.62
2023-04-17T03:19:03.548Z,6.61
2023-04-17T03:21:50.587Z,6.61
2023-04-17T03:24:36.953Z,6.59
2023-04-17T03:27:24.585Z,6.57
2023-04-17T03:30:12.297Z,6.54
2023-04-17T03:32:59.758Z,6.54
2023-04-17T03:35:48.521Z,6.51
2023-04-17T03:38:36.873Z,6.50
2023-04-17T03:41:24.972Z,6.49
2023-04-17T03:44:12.429Z,6.49
2023-04-17T03:46:58.451Z,6.48
2023-04-17T03:49:44.819Z,6.45
2023-04-17T03:52:31.590Z,6.42
2023-04-17T03:55:19.764Z,6.42
2023-04-17T03:58:07.515Z,6.38
2023-04-17T04:00:55.403Z,6.39
2023-04-17T04:03:44.775Z,6.36
2023-04-17T04:06:30.803Z,6.34
2023-04-17T04:09:17.677Z,6.32
2023-04-17T04:12:05.513Z,6.29
2023-04-17T04:14:57.842Z,6.28
2023-04-17T04:17:45.278Z,6.25
2023-04-17T04:20:31.584Z,6.24
2023-04-17T04:23:30.469Z,6.24
2023-04-17T04:26:17.416Z,6.21
2023-04-17T04:29:11.698Z,6.20
2023-04-17T04:32:15.738Z,6.20
2023-04-17T04:35:06.513Z,6.18
2023-04-17T04:37:54.717Z,6.17
2023-04-17T04:40:43.768Z,6.14
2023-04-17T04:43:30.014Z,6.12
2023-04-17T04:46:17.334Z,6.13
2023-04-17T04:49:06.685Z,6.11
2023-04-17T04:51:52.741Z,6.11
2023-04-17T04:54:43.242Z,6.11
2023-04-17T04:57:29.074Z,6.10
2023-04-17T05:00:18.539Z,6.10
2023-04-17T05:03:08.033Z,6.10
2023-04-17T05:05:54.151Z,6.11
2023-04-17T05:08:44.954Z,6.12
2023-04-17T05:11:33.463Z,6.14
2023-04-17T05:14:20.622Z,6.17
2023-04-17T05:17:08.212Z,6.18
2023-04-17T05:19:55.628Z,6.19
2023-04-17T05:22:43.003Z,6.21
2023-04-17T05:25:31.457Z,6.26
2023-04-17T05:28:19.148Z,6.29
2023-04-17T05:31:05.933Z,6.31
2023-04-17T05:33:56.445Z,6.36
2023-04-17T05:36:43.548Z,6.41
2023-04-17T05:39:29.337Z,6.45
2023-04-17T05:42:16.047Z,6.49
2023-04-17T05:45:02.863Z,6.57
2023-04-17T05:47:49.288Z,6.62
2023-04-17T05:50:37.274Z,6.67
2023-04-17T05:53:25.582Z,6.74
2023-04-17T05:56:15.974Z,6.79
2023-04-17T05:59:02.680Z,6.85
2023-04-17T06:01:50.027Z,6.93
2023-04-17T06:04:41.447Z,7.01
2023-04-17T06:07:28.109Z,7.08
2023-04-17T06:10:15.548Z,7.13
2023-04-17T06:13:02.160Z,7.23
2023-04-17T06:15:48.946Z,7.32
2023-04-17T06:18:34.824Z,7.41
2023-04-17T06:21:21.062Z,7.50
2023-04-17T06:24:07.291Z,7.60
2023-04-17T06:26:55.106Z,7.68
2023-04-17T06:29:41.679Z,7.79
2023-04-17T06:32:29.108Z,7.90
2023-04-17T06:35:15.477Z,8.03
2023-04-17T06:38:05.957Z,8.16
2023-04-17T06:40:52.822Z,8.30
2023-04-17T06:43:40.244Z,8.41
2023-04-17T06:46:33.597Z,8.52
2023-04-17T06:49:23.346Z,8.63
2023-04-17T06:52:09.664Z,8.79
2023-04-17T06:54:55.858Z,8.96
2023-04-17T06:57:41.643Z,9.16
2023-04-17T07:00:29.034Z,9.18
2023-04-17T07:03:16.678Z,9.34
2023-04-17T07:06:02.960Z,9.55
2023-04-17T07:08:48.977Z,9.64
2023-04-17T07:11:34.768Z,9.78
2023-04-17T07:14:20.497Z,9.95
2023-04-17T07:17:07.654Z,10.22
2023-04-17T07:19:53.524Z,10.19
2023-04-17T07:22:39.912Z,10.39
2023-04-17T07:25:26.374Z,10.60
2023-04-17T07:28:12.089Z,10.80
2023-04-17T07:30:58.929Z,11.00
2023-04-17T07:33:46.644Z,10.95
2023-04-17T07:36:32.395Z,11.18
2023-04-17T07:39:18.450Z,11.44
2023-04-17T07:42:07.244Z,11.74
2023-04-17T07:44:53.282Z,11.36
2023-04-17T07:47:39.041Z,11.67
2023-04-17T07:50:26.716Z,12.09
2023-04-17T07:53:12.466Z,12.40
2023-04-17T07:55:59.140Z,12.81
2023-04-17T07:58:45.349Z,13.24
2023-04-17T08:01:31.945Z,13.68
2023-04-17T08:04:18.186Z,13.77
2023-04-17T08:07:06.429Z,14.28
2023-04-17T08:09:52.425Z,14.70
2023-04-17T08:12:38.211Z,14.82
2023-04-17T08:15:24.440Z,15.29
2023-04-17T08:18:11.099Z,15.83
2023-04-17T08:20:57.495Z,16.13
2023-04-17T08:23:44.964Z,16.57
2023-04-17T08:26:30.770Z,16.76
2023-04-17T08:29:16.898Z,17.29
2023-04-17T08:32:13.953Z,17.25
2023-04-17T08:35:01.465Z,17.29
2023-04-17T08:37:47.398Z,17.67
2023-04-17T08:40:34.368Z,18.31
2023-04-17T08:43:21.123Z,17.22
2023-04-17T08:46:07.569Z,17.23
2023-04-17T08:48:53.831Z,17.29
2023-04-17T08:51:39.782Z,17.69
2023-04-17T08:54:26.375Z,18.29
2023-04-17T08:57:13.719Z,18.79
2023-04-17T09:00:00.219Z,18.97
2023-04-17T09:02:53.764Z,19.37
2023-04-17T09:05:41.744Z,19.95
2023-04-17T09:08:29.108Z,18.92
2023-04-17T09:11:17.363Z,19.76
2023-04-17T09:14:04.589Z,20.13
2023-04-17T09:16:53.830Z,20.55
2023-04-17T09:19:40.191Z,20.13
2023-04-17T09:22:26.325Z,20.78
2023-04-17T09:25:18.421Z,20.92
2023-04-17T09:28:10.274Z,21.20
2023-04-17T09:30:57.814Z,20.85
2023-04-17T09:33:47.756Z,21.07
2023-04-17T09:36:34.593Z,21.35
2023-04-17T09:39:23.766Z,21.32
2023-04-17T09:42:10.333Z,21.29
2023-04-17T09:44:57.757Z,21.42
2023-04-17T09:47:45.522Z,21.48
2023-04-17T09:50:31.762Z,21.12
2023-04-17T09:53:17.772Z,20.59
2023-04-17T09:56:05.525Z,20.95
2023-04-17T09:58:51.605Z,21.26
2023-04-17T10:01:38.259Z,21.54
2023-04-17T10:04:25.804Z,21.69
2023-04-17T10:07:12.932Z,21.85
2023-04-17T10:10:01.013Z,22.09
2023-04-17T10:12:47.219Z,22.53
2023-04-17T10:15:33.757Z,22.68
2023-04-17T10:18:20.184Z,22.92
2023-04-17T10:21:21.709Z,22.91
2023-04-17T10:24:22.869Z,22.73
2023-04-17T10:27:23.613Z,23.24
2023-04-17T10:30:12.800Z,23.52
2023-04-17T10:33:19.779Z,23.92
2023-04-17T10:36:05.948Z,24.05
2023-04-17T10:38:51.913Z,23.74
2023-04-17T10:41:37.654Z,23.20
2023-04-17T10:44:23.420Z,23.24
2023-04-17T10:50:03.311Z,22.20
2023-04-17T10:52:49.256Z,22.63
2023-04-17T10:55:35.294Z,22.82
2023-04-17T10:58:21.492Z,22.76
2023-04-17T11:01:17.696Z,22.66
2023-04-17T11:04:06.113Z,22.13
2023-04-17T11:06:52.570Z,22.41
2023-04-17T11:09:38.777Z,22.22
2023-04-17T11:12:24.576Z,22.01
2023-04-17T11:15:10.924Z,21.67
2023-04-17T11:17:57.805Z,21.60
2023-04-17T11:20:45.665Z,21.30
2023-04-17T11:23:34.463Z,21.44
2023-04-17T11:26:20.658Z,21.86
2023-04-17T11:29:14.285Z,21.85
2023-04-17T11:32:01.181Z,21.77
2023-04-17T11:34:46.978Z,21.69
2023-04-17T11:37:34.231Z,20.95
2023-04-17T11:40:23.724Z,22.09
2023-04-17T11:43:10.095Z,21.66
2023-04-17T11:45:57.102Z,22.31
2023-04-17T11:48:43.140Z,22.31
2023-04-17T11:51:29.270Z,22.00
2023-04-17T11:54:22.186Z,21.42
2023-04-17T11:57:11.790Z,21.04
2023-04-17T11:59:57.728Z,19.53
2023-04-17T12:02:43.829Z,20.35
2023-04-17T12:05:30.525Z,20.46
2023-04-17T12:08:16.718Z,21.24
2023-04-17T12:11:03.976Z,21.30
2023-04-17T12:13:49.668Z,21.42
2023-04-17T12:16:35.512Z,21.33
2023-04-17T12:19:21.809Z,21.51
2023-04-17T12:22:07.677Z,20.83
2023-04-17T12:24:53.645Z,20.14
2023-04-17T12:27:40.981Z,19.77
2023-04-17T12:30:27.240Z,20.06
2023-04-17T12:33:13.128Z,20.03
2023-04-17T12:35:58.970Z,19.83
2023-04-17T12:38:44.983Z,19.91
2023-04-17T12:41:31.834Z,19.93
2023-04-17T12:44:19.069Z,19.96
2023-04-17T12:47:05.058Z,19.85
2023-04-17T12:49:51.048Z,19.33
2023-04-17T12:52:36.841Z,19.32
2023-04-17T12:55:22.789Z,19.20
2023-04-17T12:58:09.991Z,18.88
2023-04-17T13:00:57.412Z,18.54
2023-04-17T13:03:43.336Z,18.34
2023-04-17T13:06:29.469Z,18.36
2023-04-17T13:09:16.937Z,18.16
2023-04-17T13:12:05.336Z,17.92
2023-04-17T13:14:51.431Z,17.66
2023-04-17T13:17:39.247Z,17.62
2023-04-17T13:20:25.533Z,17.91
2023-04-17T13:23:11.816Z,18.09
2023-04-17T13:25:57.842Z,18.07
2023-04-17T13:28:43.807Z,18.21
2023-04-17T13:31:30.203Z,18.33
2023-04-17T13:34:17.533Z,18.46
2023-04-17T13:37:03.575Z,18.54
2023-04-17T13:39:49.727Z,18.49
2023-04-17T13:42:35.704Z,18.48
2023-04-17T13:45:21.878Z,18.61
2023-04-17T13:48:08.105Z,18.48
2023-04-17T13:50:55.461Z,18.50
2023-04-17T13:53:41.404Z,18.56
2023-04-17T13:56:27.648Z,18.24
2023-04-17T13:59:13.705Z,18.01
2023-04-17T14:02:03.660Z,17.77
2023-04-17T14:04:50.437Z,17.52
2023-04-17T14:07:37.851Z,17.53
2023-04-17T14:10:24.014Z,17.50
2023-04-17T14:13:10.105Z,17.46
2023-04-17T14:15:56.101Z,17.25
2023-04-17T14:18:42.143Z,17.27
2023-04-17T14:21:28.544Z,17.04
2023-04-17T14:24:15.915Z,17.02
2023-04-17T14:27:02.015Z,17.12
2023-04-17T14:29:47.832Z,17.02
2023-04-17T14:32:33.662Z,16.84
2023-04-17T14:35:19.423Z,16.64
2023-04-17T14:38:05.286Z,16.50
2023-04-17T14:40:52.855Z,16.62
2023-04-17T14:43:38.966Z,16.52
2023-04-17T14:46:24.729Z,16.53
2023-04-17T14:49:11.296Z,16.55
2023-04-17T14:51:57.489Z,16.45
2023-04-17T14:54:43.513Z,16.42
2023-04-17T14:57:30.706Z,16.08
2023-04-17T15:00:16.996Z,15.93
2023-04-17T15:03:03.063Z,15.98
2023-04-17T15:05:49.175Z,15.97
2023-04-17T15:08:35.268Z,15.88
2023-04-17T15:11:21.168Z,15.93
2023-04-17T15:14:08.253Z,15.86
2023-04-17T15:16:54.388Z,15.75
2023-04-17T15:19:40.862Z,15.65
2023-04-17T15:22:26.969Z,15.60
2023-04-17T15:25:12.770Z,15.40
2023-04-17T15:27:58.484Z,15.33
2023-04-17T15:30:45.665Z,15.21
2023-04-17T15:33:31.725Z,15.13
2023-04-17T15:36:17.774Z,14.95
2023-04-17T15:39:03.717Z,14.92
2023-04-17T15:41:49.759Z,14.80
2023-04-17T15:44:37.365Z,14.84
2023-04-17T15:47:24.506Z,14.83
2023-04-17T15:50:10.866Z,14.78
2023-04-17T15:52:56.701Z,14.78
2023-04-17T15:55:42.485Z,14.57
2023-04-17T15:58:28.450Z,14.64
2023-04-17T16:01:14.698Z,14.66
2023-04-17T16:04:02.106Z,14.49
2023-04-17T16:06:48.582Z,14.51
2023-04-17T16:09:34.560Z,14.50
2023-04-17T16:12:20.488Z,14.49
2023-04-17T16:15:07.177Z,14.43
2023-04-17T16:17:53.258Z,14.38
2023-04-17T16:20:40.294Z,14.25
2023-04-17T16:23:26.188Z,14.25
2023-04-17T16:26:13.869Z,14.18
2023-04-17T16:28:59.950Z,14.05
2023-04-17T16:31:46.115Z,13.94
2023-04-17T16:34:31.869Z,13.91
2023-04-17T16:37:18.969Z,13.79
2023-04-17T16:40:05.337Z,13.72
2023-04-17T16:42:51.496Z,13.70
2023-04-17T16:45:37.388Z,13.57
2023-04-17T16:48:23.746Z,13.53
2023-04-17T16:51:09.918Z,13.48
2023-04-17T16:53:56.969Z,13.38
2023-04-17T16:56:42.967Z,13.28
2023-04-17T16:59:28.955Z,13.29
2023-04-17T17:02:14.911Z,13.18
2023-04-17T17:05:01.551Z,13.17
2023-04-17T17:07:47.583Z,13.13
2023-04-17T17:10:34.718Z,13.07
2023-04-17T17:13:20.688Z,12.99
2023-04-17T17:16:06.663Z,12.92
2023-04-17T17:18:52.565Z,12.86
2023-04-17T17:21:38.632Z,12.82
2023-04-17T17:24:24.722Z,12.72
2023-04-17T17:27:12.940Z,12.69
2023-04-17T17:30:00.381Z,12.60
2023-04-17T17:32:46.364Z,12.55
2023-04-17T17:35:33.545Z,12.50
2023-04-17T17:38:19.514Z,12.42
2023-04-17T17:41:05.460Z,12.35
2023-04-17T17:43:52.871Z,12.23
2023-04-17T17:46:39.126Z,12.22
2023-04-17T17:49:24.989Z,12.13
2023-04-17T17:52:10.971Z,12.09
2023-04-17T17:54:57.490Z,11.98
2023-04-17T17:57:48.813Z,12.00
2023-04-17T18:00:37.400Z,11.90
2023-04-17T18:03:25.996Z,11.86
2023-04-17T18:06:12.559Z,11.81
2023-04-17T18:08:58.751Z,11.74
2023-04-17T18:11:44.998Z,11.62
2023-04-17T18:14:31.139Z,11.52
2023-04-17T18:17:18.812Z,11.48
2023-04-17T18:20:04.549Z,11.42
2023-04-17T18:22:51.454Z,11.34
2023-04-17T18:25:38.968Z,11.24
2023-04-17T18:28:25.442Z,11.14
2023-04-17T18:31:11.193Z,11.17
2023-04-17T18:34:01.909Z,10.93
2023-04-17T18:36:48.329Z,10.84
2023-04-17T18:39:34.182Z,10.83
2023-04-17T18:42:20.645Z,10.78
2023-04-17T18:45:07.298Z,10.74
2023-04-17T18:47:53.339Z,10.54
2023-04-17T18:50:40.355Z,10.43
2023-04-17T18:53:27.464Z,10.31
2023-04-17T18:56:14.904Z,10.29
2023-04-17T18:59:00.887Z,10.01
2023-04-17T19:01:46.601Z,9.95
2023-04-17T19:04:34.255Z,9.85
2023-04-17T19:07:21.432Z,9.78
2023-04-17T19:10:08.499Z,9.63
2023-04-17T19:12:54.222Z,9.51
2023-04-17T19:15:40.236Z,9.34
2023-04-17T19:18:26.490Z,9.25
2023-04-17T19:21:15.553Z,9.07
2023-04-17T19:24:02.765Z,8.99
2023-04-17T19:26:48.840Z,8.93
2023-04-17T19:29:34.756Z,8.93
2023-04-17T19:32:20.743Z,8.84
2023-04-17T19:35:07.508Z,8.81
2023-04-17T19:37:53.498Z,8.69
2023-04-17T19:40:40.729Z,8.49
2023-04-17T19:43:26.540Z,8.44
2023-04-17T19:46:13.260Z,8.38
2023-04-17T19:48:59.827Z,8.34
2023-04-17T19:51:45.900Z,8.28
2023-04-17T19:54:32.446Z,8.08
2023-04-17T19:57:19.874Z,8.04
2023-04-17T20:00:06.318Z,8.00
2023-04-17T20:02:58.343Z,8.04
2023-04-17T20:05:44.652Z,7.98
2023-04-17T20:08:30.536Z,7.82
2023-04-17T20:11:16.718Z,7.78
2023-04-17T20:14:04.249Z,7.63
2023-04-17T20:16:50.477Z,7.67
2023-04-17T20:19:36.530Z,7.58
2023-04-17T20:22:22.296Z,7.58
2023-04-17T20:25:08.398Z,7.57
2023-04-17T20:27:54.458Z,7.54
2023-04-17T20:30:41.597Z,7.50
2023-04-17T20:33:27.472Z,7.47
2023-04-17T20:36:13.753Z,7.44
2023-04-17T20:38:59.720Z,7.46
2023-04-17T20:41:46.350Z,7.47
2023-04-17T20:44:32.475Z,7.53
2023-04-17T20:47:19.534Z,7.55
2023-04-17T20:50:05.590Z,7.51
2023-04-17T20:52:51.627Z,7.58
2023-04-17T20:55:37.610Z,7.62
2023-04-17T20:58:23.746Z,7.64
2023-04-17T21:01:09.467Z,7.64
2023-04-17T21:03:56.660Z,7.67
2023-04-17T21:06:42.988Z,7.68
2023-04-17T21:09:28.748Z,7.74
2023-04-17T21:12:15.403Z,7.74
2023-04-17T21:15:01.570Z,7.76
2023-04-17T21:17:47.832Z,7.71
2023-04-17T21:20:35.599Z,7.74
2023-04-17T21:23:21.818Z,7.79
2023-04-17T21:26:07.511Z,7.83
2023-04-17T21:28:53.373Z,7.86
2023-04-17T21:31:39.490Z,7.83
2023-04-17T21:34:25.554Z,7.84
2023-04-17T21:37:12.565Z,7.84
2023-04-17T21:39:58.550Z,7.84
2023-04-17T21:42:44.351Z,7.81
2023-04-17T21:45:31.659Z,7.82
2023-04-17T21:48:17.757Z,7.79
2023-04-17T21:51:04.134Z,7.80
2023-04-17T21:53:51.666Z,7.85
2023-04-17T21:56:37.434Z,7.83
2023-04-17T21:59:24.239Z,7.79
2023-04-17T22:02:10.406Z,7.84
2023-04-17T22:04:56.068Z,7.86
2023-04-17T22:07:51.748Z,7.82
2023-04-17T22:10:42.461Z,7.81
2023-04-17T22:13:28.297Z,7.82
2023-04-17T22:16:14.196Z,7.84
2023-04-17T22:18:59.936Z,7.78
2023-04-17T22:21:45.727Z,7.80
2023-04-17T22:24:31.763Z,7.81
2023-04-17T22:27:18.978Z,7.78
2023-04-17T22:30:06.248Z,7.80
2023-04-17T22:32:52.531Z,7.77
2023-04-17T22:35:38.138Z,7.80
2023-04-17T22:38:23.903Z,7.81
2023-04-17T22:41:09.593Z,7.81
2023-04-17T22:43:56.789Z,7.82
2023-04-17T22:46:42.762Z,7.77
2023-04-17T22:49:28.919Z,7.76
2023-04-17T22:52:14.870Z,7.65
2023-04-17T22:55:01.574Z,7.72
2023-04-17T22:57:47.200Z,7.58
2023-04-17T23:00:34.403Z,7.75
2023-04-17T23:03:20.252Z,7.71
2023-04-17T23:06:07.366Z,7.64
2023-04-17T23:08:53.207Z,7.64
2023-04-17T23:11:39.006Z,7.65
2023-04-17T23:14:26.100Z,7.63
2023-04-17T23:17:13.241Z,7.66
2023-04-17T23:19:59.015Z,7.61
2023-04-17T23:22:45.212Z,7.53
2023-04-17T23:25:31.282Z,7.51
2023-04-17T23:28:17.142Z,7.53
2023-04-17T23:31:04.476Z,7.47
2023-04-17T23:33:51.583Z,7.45
2023-04-17T23:36:37.333Z,7.47
2023-04-17T23:39:23.141Z,7.41
2023-04-17T23:42:09.568Z,7.28
2023-04-17T23:44:55.550Z,7.36
2023-04-17T23:47:41.460Z,7.30
2023-04-17T23:50:29.050Z,7.29
2023-04-17T23:53:14.797Z,7.23
2023-04-17T23:56:00.734Z,7.18
2023-04-17T23:58:46.737Z,7.09
